Time;durP1;ratioP1;P1;durP2;ratioP2;P2;SDS_P1;SDS_P2;PMS_P1;PMS_P2;Temp;Humidity;BMP_temperature;BMP_pressure;BME280_temperature;BME280_humidity;BME280_pressure;Samples;Min_cycle;Max_cycle;Signal;HPM_P1;HPM_P2
2023/04/29 00:01:48;;;;;;;;;;;;;;;11.20;93.40;101282.03;20971527;28;19928;-54
2023/04/29 00:12:10;;;;;;;;;;;;;;;11.12;93.20;101274.44;20963942;28;19955;-55
2023/04/29 00:22:31;;;;;;;;;;;;;;;11.09;93.35;101299.56;20951085;28;19932;-56
2023/04/29 00:32:53;;;;;;;;;;;;;;;11.09;93.69;101304.75;20960462;28;19929;-56
2023/04/29 00:43:14;;;;;;;;;;;;;;;10.98;93.75;101317.97;20961821;28;20007;-54
2023/04/29 00:53:37;;;;;;;;;;;;;;;10.91;92.75;101334.50;20944228;28;19970;-55
2023/04/29 01:04:00;;;;;;;;;;;;;;;10.87;90.62;101342.41;20960853;28;20408;-56
2023/04/29 01:14:23;;;;;;;;;;;;;;;10.85;92.12;101350.19;20948722;28;19929;-56
2023/04/29 01:24:44;;;;;;;;;;;;;;;10.80;94.74;101358.97;20949846;28;19982;-55
2023/04/29 01:35:05;;;;;;;;;;;;;;;10.70;91.97;101376.41;20952834;28;19932;-56
2023/04/29 01:45:27;;;;;;;;;;;;;;;10.64;91.78;101389.50;20955806;28;19932;-56
2023/04/29 01:55:49;;;;;;;;;;;;;;;10.62;91.92;101411.94;20948862;28;19925;-56
2023/04/29 02:06:10;;;;;;;;;;;;;;;10.59;91.22;101412.03;20949135;28;19931;-56
2023/04/29 02:16:32;;;;;;;;;;;;;;;10.54;91.85;101425.94;20944914;28;19994;-55
2023/04/29 02:26:53;;;;;;;;;;;;;;;10.52;92.94;101436.34;20953958;28;19935;-56
2023/04/29 02:37:15;;;;;;;;;;;;;;;10.51;91.61;101449.31;20955406;28;19933;-56
2023/04/29 02:47:36;;;;;;;;;;;;;;;10.50;91.12;101456.22;20962480;28;19982;-56
2023/04/29 02:57:57;;;;;;;;;;;;;;;10.41;91.02;101477.09;20976892;28;19929;-56
2023/04/29 03:08:19;;;;;;;;;;;;;;;10.41;90.80;101490.03;20966439;28;20288;-54
2023/04/29 03:18:40;;;;;;;;;;;;;;;10.37;91.00;101509.06;20966105;28;19985;-56
2023/04/29 03:29:02;;;;;;;;;;;;;;;10.38;90.61;101515.09;20955055;28;20002;-56
2023/04/29 03:39:23;;;;;;;;;;;;;;;10.42;91.28;101516.75;20969314;28;20319;-56
2023/04/29 03:49:45;;;;;;;;;;;;;;;10.40;91.16;101524.50;20962949;28;19986;-56
2023/04/29 04:00:07;;;;;;;;;;;;;;;10.41;90.64;101549.53;20971030;28;19987;-56
2023/04/29 04:10:28;;;;;;;;;;;;;;;10.40;92.33;101560.72;20962213;28;19977;-56
2023/04/29 04:20:50;;;;;;;;;;;;;;;10.41;93.82;101577.97;20953277;28;20422;-55
2023/04/29 04:31:13;;;;;;;;;;;;;;;10.39;90.99;101605.59;20965061;28;19978;-55
2023/04/29 04:41:35;;;;;;;;;;;;;;;10.39;91.88;101618.53;20961944;28;19974;-56
2023/04/29 04:51:56;;;;;;;;;;;;;;;10.34;90.17;101633.28;20969889;28;19928;-55
2023/04/29 05:02:17;;;;;;;;;;;;;;;10.33;91.09;101641.91;20952147;28;19925;-56
2023/04/29 05:12:39;;;;;;;;;;;;;;;10.35;89.24;101649.66;20957663;28;20354;-56
2023/04/29 05:23:01;;;;;;;;;;;;;;;10.32;89.66;101662.63;20957146;28;20566;-55
2023/04/29 05:33:22;;;;;;;;;;;;;;;10.35;90.48;101684.13;20953077;28;19924;-56
2023/04/29 05:43:44;;;;;;;;;;;;;;;10.32;90.31;101702.31;20947474;28;19924;-55
2023/04/29 05:54:05;;;;;;;;;;;;;;;10.30;89.72;101710.94;20962841;28;19928;-56
2023/04/29 06:04:27;;;;;;;;;;;;;;;10.31;89.59;101721.28;20956473;28;19929;-55
2023/04/29 06:14:49;;;;;;;;;;;;;;;10.33;87.22;101745.38;20963515;28;19986;-54
2023/04/29 06:25:10;;;;;;;;;;;;;;;10.39;88.35;101750.50;20947241;28;19935;-54
2023/04/29 06:35:32;;;;;;;;;;;;;;;10.46;89.71;101756.41;20952294;28;19932;-54
2023/04/29 06:45:53;;;;;;;;;;;;;;;10.52;87.82;101782.22;20952697;28;20506;-55
2023/04/29 06:56:15;;;;;;;;;;;;;;;10.61;88.68;101790.72;20943980;28;19954;-54
2023/04/29 07:06:37;;;;;;;;;;;;;;;10.72;87.36;101812.09;20943906;28;19934;-54
2023/04/29 07:16:59;;;;;;;;;;;;;;;10.86;88.26;101817.94;20935212;28;19928;-56
2023/04/29 07:27:20;;;;;;;;;;;;;;;11.09;88.36;101839.16;20953536;28;19924;-57
2023/04/29 07:37:42;;;;;;;;;;;;;;;11.22;84.56;101841.53;20970382;28;19928;-55
2023/04/29 07:48:05;;;;;;;;;;;;;;;11.37;84.48;101859.44;20949874;28;20042;-55
2023/04/29 07:58:27;;;;;;;;;;;;;;;11.55;82.84;101870.34;20950733;28;19959;-55
2023/04/29 08:08:48;;;;;;;;;;;;;;;11.68;81.34;101886.56;20958072;28;19989;-55
2023/04/29 08:19:10;;;;;;;;;;;;;;;11.67;81.46;101895.22;20954283;28;19936;-54
2023/04/29 08:29:31;;;;;;;;;;;;;;;11.79;79.59;101901.03;20953556;28;19924;-56
2023/04/29 08:39:53;;;;;;;;;;;;;;;12.04;78.54;101922.22;20960478;28;20264;-56
2023/04/29 08:50:14;;;;;;;;;;;;;;;12.18;76.97;101930.59;20964779;28;20237;-55
2023/04/29 09:00:36;;;;;;;;;;;;;;;12.37;78.78;101931.09;20954915;28;19937;-56
2023/04/29 09:10:58;;;;;;;;;;;;;;;12.51;77.33;101945.50;20954077;28;19924;-57
2023/04/29 09:21:23;;;;;;;;;;;;;;;12.83;74.69;101948.31;20960271;28;19928;-59
2023/04/29 09:31:45;;;;;;;;;;;;;;;12.96;74.06;101951.50;20957054;28;19947;-59
2023/04/29 09:42:08;;;;;;;;;;;;;;;13.09;72.45;101971.19;20961646;28;20402;-59
2023/04/29 09:52:38;;;;;;;;;;;;;;;13.32;73.15;101968.91;20944067;28;20371;-56
2023/04/29 10:03:00;;;;;;;;;;;;;;;13.84;70.65;101971.94;20947538;28;20258;-55
2023/04/29 10:13:23;;;;;;;;;;;;;;;14.12;68.98;101969.50;20934665;28;19928;-57
2023/04/29 10:23:45;;;;;;;;;;;;;;;14.26;68.44;101976.94;20954444;28;19932;-56
2023/04/29 10:34:06;;;;;;;;;;;;;;;14.46;69.26;101978.16;20949034;28;20343;-57
2023/04/29 10:44:28;;;;;;;;;;;;;;;14.73;67.27;101968.69;20943617;28;19928;-56
2023/04/29 10:55:00;;;;;;;;;;;;;;;14.82;67.08;101974.50;20952857;28;20048;-58
2023/04/29 11:05:40;;;;;;;;;;;;;;;14.55;69.10;101979.66;20952444;28;20290;-56
2023/04/29 11:16:05;;;;;;;;;;;;;;;14.84;66.70;101979.69;20961935;28;20154;-57
2023/04/29 11:26:27;;;;;;;;;;;;;;;15.20;66.59;101981.19;20968019;28;20015;-57
2023/04/29 11:36:49;;;;;;;;;;;;;;;15.56;64.60;101984.44;20952712;28;19936;-57
2023/04/29 11:47:10;;;;;;;;;;;;;;;15.85;59.71;101986.97;20969044;28;19932;-58
2023/04/29 11:57:31;;;;;;;;;;;;;;;16.21;64.39;101980.47;20956251;28;20055;-58
2023/04/29 12:07:56;;;;;;;;;;;;;;;16.42;55.62;101995.41;20957433;28;19959;-58
2023/04/29 12:18:18;;;;;;;;;;;;;;;16.52;60.43;102007.28;20958043;28;19976;-58
2023/04/29 12:28:40;;;;;;;;;;;;;;;16.56;62.69;101990.56;20962655;28;20413;-58
2023/04/29 12:39:05;;;;;;;;;;;;;;;16.39;63.46;102021.63;20958947;28;19970;-56
2023/04/29 12:49:27;;;;;;;;;;;;;;;16.39;62.11;102021.63;20959735;28;20291;-58
2023/04/29 12:59:48;;;;;;;;;;;;;;;16.58;60.00;102027.97;20963972;28;20078;-56
2023/04/29 13:10:11;;;;;;;;;;;;;;;16.80;55.69;102023.69;20950643;28;19970;-56
2023/04/29 13:20:34;;;;;;;;;;;;;;;16.91;62.53;102031.13;20951591;28;19936;-57
2023/04/29 13:31:02;;;;;;;;;;;;;;;17.07;63.94;102037.47;20967971;28;19932;-57
2023/04/29 13:41:25;;;;;;;;;;;;;;;16.97;62.60;102042.22;20952174;28;19943;-57
2023/04/29 13:51:46;;;;;;;;;;;;;;;16.99;59.99;102050.84;20953921;28;19929;-57
2023/04/29 14:02:28;;;;;;;;;;;;;;;16.69;60.07;102066.78;20949923;28;20142;-58
2023/04/29 14:12:49;;;;;;;;;;;;;;;16.66;59.33;102073.00;20952414;28;19988;-56
2023/04/29 14:23:11;;;;;;;;;;;;;;;16.78;60.19;102080.41;20938318;28;19925;-56
2023/04/29 14:33:32;;;;;;;;;;;;;;;16.54;59.83;102094.31;20955981;28;19925;-58
2023/04/29 14:43:54;;;;;;;;;;;;;;;16.57;60.42;102106.44;20945100;28;19971;-57
2023/04/29 14:54:15;;;;;;;;;;;;;;;16.29;60.62;102118.66;20979311;28;19928;-57
2023/04/29 15:04:37;;;;;;;;;;;;;;;16.11;62.06;102133.19;20954476;28;19925;-55
2023/04/29 15:14:59;;;;;;;;;;;;;;;15.88;65.21;102140.88;20964314;28;19933;-57
2023/04/29 15:25:20;;;;;;;;;;;;;;;16.04;64.98;102144.75;20976953;28;20198;-56
2023/04/29 15:35:45;;;;;;;;;;;;;;;15.91;66.25;102159.06;20966612;28;19929;-56
2023/04/29 15:46:07;;;;;;;;;;;;;;;15.69;65.95;102178.88;20959406;28;20334;-55
2023/04/29 15:56:29;;;;;;;;;;;;;;;15.25;65.70;102179.25;20960234;28;19947;-57
2023/04/29 16:06:51;;;;;;;;;;;;;;;14.09;76.18;102198.66;20959482;28;20351;-56
2023/04/29 16:17:12;;;;;;;;;;;;;;;14.11;73.32;102204.69;20965363;28;19932;-56
2023/04/29 16:27:34;;;;;;;;;;;;;;;14.11;71.46;102215.97;20969095;28;19932;-55
2023/04/29 16:37:55;;;;;;;;;;;;;;;14.17;68.64;102206.31;20905777;28;19929;-55
2023/04/29 16:48:17;;;;;;;;;;;;;;;14.13;69.78;102215.94;20960166;28;19971;-55
2023/04/29 16:58:38;;;;;;;;;;;;;;;13.91;66.63;102220.75;20966402;28;20446;-55
2023/04/29 17:09:01;;;;;;;;;;;;;;;13.66;70.12;102223.91;20951191;28;19982;-56
2023/04/29 17:19:22;;;;;;;;;;;;;;;13.42;70.14;102234.78;20952600;28;19943;-56
2023/04/29 17:29:51;;;;;;;;;;;;;;;13.32;69.49;102243.63;20891790;28;19941;-54
2023/04/29 17:40:13;;;;;;;;;;;;;;;13.26;70.21;102254.16;20738752;28;19971;-55
2023/04/29 17:50:36;;;;;;;;;;;;;;;13.13;70.77;102259.53;20737483;28;19933;-55
2023/04/29 18:00:58;;;;;;;;;;;;;;;13.09;71.15;102276.06;20725246;28;19933;-55
2023/04/29 18:11:19;;;;;;;;;;;;;;;12.88;69.92;102284.22;20737594;28;20436;-54
2023/04/29 18:21:41;;;;;;;;;;;;;;;12.73;70.32;102284.44;20737338;28;19929;-55
2023/04/29 18:32:02;;;;;;;;;;;;;;;12.76;70.41;102289.56;20784865;28;19933;-54
2023/04/29 18:42:28;;;;;;;;;;;;;;;12.54;69.25;102288.22;20751089;28;19933;-54
2023/04/29 18:52:49;;;;;;;;;;;;;;;12.22;70.57;102300.75;20741664;28;19948;-56
2023/04/29 19:03:11;;;;;;;;;;;;;;;11.99;70.97;102323.56;20733558;28;20538;-54
2023/04/29 19:13:32;;;;;;;;;;;;;;;11.82;71.68;102348.81;20743775;28;19929;-55
2023/04/29 19:23:54;;;;;;;;;;;;;;;11.58;70.89;102364.56;20758309;28;19982;-54
2023/04/29 19:34:15;;;;;;;;;;;;;;;11.41;70.88;102376.84;20754929;28;19984;-54
2023/04/29 19:44:37;;;;;;;;;;;;;;;11.21;71.63;102381.34;20737802;28;20343;-54
2023/04/29 19:54:58;;;;;;;;;;;;;;;11.01;71.54;102379.72;20728465;28;20039;-56
2023/04/29 20:05:20;;;;;;;;;;;;;;;10.89;71.18;102378.97;20734727;28;19988;-54
2023/04/29 20:15:41;;;;;;;;;;;;;;;10.74;72.73;102389.41;20756068;28;19971;-55
2023/04/29 20:26:03;;;;;;;;;;;;;;;10.50;72.14;102390.38;20754589;28;20476;-56
2023/04/29 20:36:27;;;;;;;;;;;;;;;10.42;72.95;102397.31;20731042;28;20353;-56
2023/04/29 20:46:49;;;;;;;;;;;;;;;10.35;73.13;102403.38;20766548;28;20585;-56
2023/04/29 20:57:10;;;;;;;;;;;;;;;10.32;73.92;102410.28;20754955;28;20261;-56
2023/04/29 21:07:32;;;;;;;;;;;;;;;10.29;72.96;102418.09;20742343;28;19955;-56
2023/04/29 21:17:54;;;;;;;;;;;;;;;10.17;73.23;102431.91;20746364;28;20299;-56
2023/04/29 21:28:15;;;;;;;;;;;;;;;10.11;73.37;102434.50;20752015;28;19926;-54
2023/04/29 21:38:37;;;;;;;;;;;;;;;10.01;73.55;102435.34;20740155;28;19940;-54
2023/04/29 21:48:59;;;;;;;;;;;;;;;9.87;74.12;102426.78;20749555;28;19937;-56
2023/04/29 21:59:21;;;;;;;;;;;;;;;9.80;74.19;102443.13;20748596;28;19926;-55
2023/04/29 22:09:46;;;;;;;;;;;;;;;9.68;74.47;102448.31;20749431;28;19973;-56
2023/04/29 22:20:08;;;;;;;;;;;;;;;9.58;74.34;102457.78;20771061;28;20372;-55
2023/04/29 22:30:30;;;;;;;;;;;;;;;9.49;75.49;102459.50;20751611;28;19929;-56
2023/04/29 22:40:51;;;;;;;;;;;;;;;9.43;75.62;102465.53;20756167;28;20269;-54
2023/04/29 22:51:13;;;;;;;;;;;;;;;9.32;75.57;102468.97;20757862;28;19941;-55
2023/04/29 23:01:35;;;;;;;;;;;;;;;9.24;76.34;102465.50;20758524;28;19933;-57
2023/04/29 23:11:58;;;;;;;;;;;;;;;9.11;76.18;102470.66;20770273;28;20020;-56
2023/04/29 23:22:19;;;;;;;;;;;;;;;8.99;76.27;102473.19;20746334;28;19983;-56
2023/04/29 23:32:40;;;;;;;;;;;;;;;8.90;76.42;102482.66;20768893;28;19925;-55
2023/04/29 23:43:02;;;;;;;;;;;;;;;8.76;76.86;102492.91;20741515;28;19971;-55
2023/04/29 23:53:24;;;;;;;;;;;;;;;8.67;77.37;102495.44;20749502;28;20365;-56
